sensor_id;sensor_type;location;lat;lon;timestamp;temperature;humidity
10566;DHT22;5331;48.148;16.326;2023-02-04T00:01:00;7.00;1.00
10566;DHT22;5331;48.148;16.326;2023-02-04T00:03:26;7.00;1.00
10566;DHT22;5331;48.148;16.326;2023-02-04T00:05:55;7.00;1.00
10566;DHT22;5331;48.148;16.326;2023-02-04T00:08:22;7.00;1.00
10566;DHT22;5331;48.148;16.326;2023-02-04T00:10:49;6.90;1.00
10566;DHT22;5331;48.148;16.326;2023-02-04T00:13:16;6.90;1.00
10566;DHT22;5331;48.148;16.326;2023-02-04T00:15:43;6.90;1.00
10566;DHT22;5331;48.148;16.326;2023-02-04T00:18:10;6.80;1.00
10566;DHT22;5331;48.148;16.326;2023-02-04T00:20:37;6.90;1.00
10566;DHT22;5331;48.148;16.326;2023-02-04T00:23:05;6.80;1.00
10566;DHT22;5331;48.148;16.326;2023-02-04T00:25:32;6.80;1.00
10566;DHT22;5331;48.148;16.326;2023-02-04T00:27:59;6.80;1.00
10566;DHT22;5331;48.148;16.326;2023-02-04T00:30:26;6.70;1.00
10566;DHT22;5331;48.148;16.326;2023-02-04T00:32:53;6.70;1.00
10566;DHT22;5331;48.148;16.326;2023-02-04T00:35:21;6.60;1.00
10566;DHT22;5331;48.148;16.326;2023-02-04T00:37:48;6.70;1.00
10566;DHT22;5331;48.148;16.326;2023-02-04T00:40:17;6.70;1.00
10566;DHT22;5331;48.148;16.326;2023-02-04T00:42:44;6.70;1.00
10566;DHT22;5331;48.148;16.326;2023-02-04T00:45:12;6.70;1.00
10566;DHT22;5331;48.148;16.326;2023-02-04T00:47:39;6.70;1.00
10566;DHT22;5331;48.148;16.326;2023-02-04T00:50:06;6.60;1.00
10566;DHT22;5331;48.148;16.326;2023-02-04T00:52:33;6.60;1.00
10566;DHT22;5331;48.148;16.326;2023-02-04T00:55:00;6.70;1.00
10566;DHT22;5331;48.148;16.326;2023-02-04T00:57:29;6.70;1.00
10566;DHT22;5331;48.148;16.326;2023-02-04T00:59:56;6.70;1.00
10566;DHT22;5331;48.148;16.326;2023-02-04T01:02:23;6.70;1.00
10566;DHT22;5331;48.148;16.326;2023-02-04T01:04:49;6.70;1.00
10566;DHT22;5331;48.148;16.326;2023-02-04T01:07:16;6.80;1.00
10566;DHT22;5331;48.148;16.326;2023-02-04T01:09:43;6.80;1.00
10566;DHT22;5331;48.148;16.326;2023-02-04T01:12:10;6.80;1.00
10566;DHT22;5331;48.148;16.326;2023-02-04T01:14:39;6.80;1.00
10566;DHT22;5331;48.148;16.326;2023-02-04T01:17:06;6.80;1.00
10566;DHT22;5331;48.148;16.326;2023-02-04T01:19:33;6.80;1.00
10566;DHT22;5331;48.148;16.326;2023-02-04T01:22:00;6.80;1.00
10566;DHT22;5331;48.148;16.326;2023-02-04T01:24:27;6.80;1.00
10566;DHT22;5331;48.148;16.326;2023-02-04T01:26:54;6.90;1.00
10566;DHT22;5331;48.148;16.326;2023-02-04T01:29:20;6.80;1.00
10566;DHT22;5331;48.148;16.326;2023-02-04T01:31:49;6.90;1.00
10566;DHT22;5331;48.148;16.326;2023-02-04T01:34:16;6.90;1.00
10566;DHT22;5331;48.148;16.326;2023-02-04T01:36:43;6.80;1.00
10566;DHT22;5331;48.148;16.326;2023-02-04T01:39:10;6.80;1.00
10566;DHT22;5331;48.148;16.326;2023-02-04T01:41:37;6.80;1.00
10566;DHT22;5331;48.148;16.326;2023-02-04T01:44:04;6.80;1.00
10566;DHT22;5331;48.148;16.326;2023-02-04T01:46:31;6.70;1.00
10566;DHT22;5331;48.148;16.326;2023-02-04T01:49:00;6.70;1.00
10566;DHT22;5331;48.148;16.326;2023-02-04T01:51:28;6.70;1.00
10566;DHT22;5331;48.148;16.326;2023-02-04T01:53:56;6.70;1.00
10566;DHT22;5331;48.148;16.326;2023-02-04T01:56:25;6.70;1.00
10566;DHT22;5331;48.148;16.326;2023-02-04T01:58:54;6.70;1.00
10566;DHT22;5331;48.148;16.326;2023-02-04T02:01:35;6.70;1.00
10566;DHT22;5331;48.148;16.326;2023-02-04T02:04:04;6.70;1.00
10566;DHT22;5331;48.148;16.326;2023-02-04T02:06:31;6.70;1.00
10566;DHT22;5331;48.148;16.326;2023-02-04T02:08:58;6.70;1.00
10566;DHT22;5331;48.148;16.326;2023-02-04T02:11:26;6.70;1.00
10566;DHT22;5331;48.148;16.326;2023-02-04T02:13:53;6.80;1.00
10566;DHT22;5331;48.148;16.326;2023-02-04T02:16:20;6.80;1.00
10566;DHT22;5331;48.148;16.326;2023-02-04T02:18:47;6.80;1.00
10566;DHT22;5331;48.148;16.326;2023-02-04T02:21:22;6.80;1.00
10566;DHT22;5331;48.148;16.326;2023-02-04T02:23:54;6.80;1.00
10566;DHT22;5331;48.148;16.326;2023-02-04T02:26:23;6.80;1.00
10566;DHT22;5331;48.148;16.326;2023-02-04T02:28:50;6.70;1.00
10566;DHT22;5331;48.148;16.326;2023-02-04T02:31:19;6.70;1.00
10566;DHT22;5331;48.148;16.326;2023-02-04T02:33:47;6.70;1.00
10566;DHT22;5331;48.148;16.326;2023-02-04T02:36:14;6.70;1.00
10566;DHT22;5331;48.148;16.326;2023-02-04T02:38:41;6.60;1.00
10566;DHT22;5331;48.148;16.326;2023-02-04T02:41:10;6.70;1.00
10566;DHT22;5331;48.148;16.326;2023-02-04T02:43:37;6.70;1.00
10566;DHT22;5331;48.148;16.326;2023-02-04T02:46:05;6.70;1.00
10566;DHT22;5331;48.148;16.326;2023-02-04T02:48:32;6.80;1.00
10566;DHT22;5331;48.148;16.326;2023-02-04T02:50:59;6.80;1.00
10566;DHT22;5331;48.148;16.326;2023-02-04T02:53:26;6.80;1.00
10566;DHT22;5331;48.148;16.326;2023-02-04T02:55:53;6.90;1.00
10566;DHT22;5331;48.148;16.326;2023-02-04T02:58:25;6.80;1.00
10566;DHT22;5331;48.148;16.326;2023-02-04T03:00:53;6.80;1.00
10566;DHT22;5331;48.148;16.326;2023-02-04T03:03:24;6.80;1.00
10566;DHT22;5331;48.148;16.326;2023-02-04T03:05:54;6.80;1.00
10566;DHT22;5331;48.148;16.326;2023-02-04T03:08:21;6.80;1.00
10566;DHT22;5331;48.148;16.326;2023-02-04T03:10:48;6.80;1.00
10566;DHT22;5331;48.148;16.326;2023-02-04T03:13:16;6.80;1.00
10566;DHT22;5331;48.148;16.326;2023-02-04T03:15:47;6.90;1.00
10566;DHT22;5331;48.148;16.326;2023-02-04T03:18:15;7.00;1.00
10566;DHT22;5331;48.148;16.326;2023-02-04T03:20:43;7.10;1.00
10566;DHT22;5331;48.148;16.326;2023-02-04T03:23:10;7.10;1.00
10566;DHT22;5331;48.148;16.326;2023-02-04T03:25:38;7.10;1.00
10566;DHT22;5331;48.148;16.326;2023-02-04T03:28:05;7.10;1.00
10566;DHT22;5331;48.148;16.326;2023-02-04T03:30:32;7.10;1.00
10566;DHT22;5331;48.148;16.326;2023-02-04T03:33:00;7.10;1.00
10566;DHT22;5331;48.148;16.326;2023-02-04T03:35:27;7.10;1.00
10566;DHT22;5331;48.148;16.326;2023-02-04T03:37:54;7.10;1.00
10566;DHT22;5331;48.148;16.326;2023-02-04T03:40:21;7.10;1.00
10566;DHT22;5331;48.148;16.326;2023-02-04T03:42:48;7.10;1.00
10566;DHT22;5331;48.148;16.326;2023-02-04T03:45:15;7.20;1.00
10566;DHT22;5331;48.148;16.326;2023-02-04T03:47:42;7.20;1.00
10566;DHT22;5331;48.148;16.326;2023-02-04T03:50:11;7.10;1.00
10566;DHT22;5331;48.148;16.326;2023-02-04T03:52:38;7.10;1.00
10566;DHT22;5331;48.148;16.326;2023-02-04T03:55:06;7.20;1.00
10566;DHT22;5331;48.148;16.326;2023-02-04T03:57:33;7.20;1.00
10566;DHT22;5331;48.148;16.326;2023-02-04T04:00:00;7.20;1.00
10566;DHT22;5331;48.148;16.326;2023-02-04T04:02:27;7.20;1.00
10566;DHT22;5331;48.148;16.326;2023-02-04T04:04:54;7.10;1.00
10566;DHT22;5331;48.148;16.326;2023-02-04T04:07:22;7.10;1.00
10566;DHT22;5331;48.148;16.326;2023-02-04T04:09:49;7.00;1.00
10566;DHT22;5331;48.148;16.326;2023-02-04T04:12:16;6.90;1.00
10566;DHT22;5331;48.148;16.326;2023-02-04T04:14:43;6.80;1.00
10566;DHT22;5331;48.148;16.326;2023-02-04T04:17:10;6.70;1.00
10566;DHT22;5331;48.148;16.326;2023-02-04T04:19:37;6.60;1.00
10566;DHT22;5331;48.148;16.326;2023-02-04T04:22:04;6.60;1.00
10566;DHT22;5331;48.148;16.326;2023-02-04T04:24:32;6.30;1.00
10566;DHT22;5331;48.148;16.326;2023-02-04T04:26:59;6.30;1.00
10566;DHT22;5331;48.148;16.326;2023-02-04T04:29:26;6.20;1.00
10566;DHT22;5331;48.148;16.326;2023-02-04T04:31:53;6.20;1.00
10566;DHT22;5331;48.148;16.326;2023-02-04T04:34:20;6.10;1.00
10566;DHT22;5331;48.148;16.326;2023-02-04T04:36:47;6.00;1.00
10566;DHT22;5331;48.148;16.326;2023-02-04T04:39:14;5.90;1.00
10566;DHT22;5331;48.148;16.326;2023-02-04T04:41:42;5.60;1.00
10566;DHT22;5331;48.148;16.326;2023-02-04T04:44:09;5.40;1.00
10566;DHT22;5331;48.148;16.326;2023-02-04T04:46:36;5.30;1.00
10566;DHT22;5331;48.148;16.326;2023-02-04T04:49:05;5.30;1.00
10566;DHT22;5331;48.148;16.326;2023-02-04T04:51:32;5.20;1.00
10566;DHT22;5331;48.148;16.326;2023-02-04T04:53:59;5.10;1.00
10566;DHT22;5331;48.148;16.326;2023-02-04T04:56:25;5.10;1.00
10566;DHT22;5331;48.148;16.326;2023-02-04T04:58:54;4.90;1.00
10566;DHT22;5331;48.148;16.326;2023-02-04T05:01:21;4.90;1.00
10566;DHT22;5331;48.148;16.326;2023-02-04T05:03:48;4.80;1.00
10566;DHT22;5331;48.148;16.326;2023-02-04T05:06:15;4.70;1.00
10566;DHT22;5331;48.148;16.326;2023-02-04T05:08:43;4.70;1.00
10566;DHT22;5331;48.148;16.326;2023-02-04T05:11:10;4.70;1.00
10566;DHT22;5331;48.148;16.326;2023-02-04T05:13:37;4.70;1.00
10566;DHT22;5331;48.148;16.326;2023-02-04T05:16:06;4.70;1.00
10566;DHT22;5331;48.148;16.326;2023-02-04T05:18:33;4.70;1.00
10566;DHT22;5331;48.148;16.326;2023-02-04T05:21:00;4.70;1.00
10566;DHT22;5331;48.148;16.326;2023-02-04T05:23:26;4.60;1.00
10566;DHT22;5331;48.148;16.326;2023-02-04T05:25:53;4.60;1.00
10566;DHT22;5331;48.148;16.326;2023-02-04T05:28:20;4.60;1.00
10566;DHT22;5331;48.148;16.326;2023-02-04T05:30:47;4.50;1.00
10566;DHT22;5331;48.148;16.326;2023-02-04T05:33:16;4.60;1.00
10566;DHT22;5331;48.148;16.326;2023-02-04T05:35:43;4.50;1.00
10566;DHT22;5331;48.148;16.326;2023-02-04T05:38:10;4.50;1.00
10566;DHT22;5331;48.148;16.326;2023-02-04T05:40:37;4.50;1.00
10566;DHT22;5331;48.148;16.326;2023-02-04T05:43:03;4.40;1.00
10566;DHT22;5331;48.148;16.326;2023-02-04T05:45:30;4.40;1.00
10566;DHT22;5331;48.148;16.326;2023-02-04T05:47:57;4.40;1.00
10566;DHT22;5331;48.148;16.326;2023-02-04T05:50:26;4.30;1.00
10566;DHT22;5331;48.148;16.326;2023-02-04T05:52:53;4.30;1.00
10566;DHT22;5331;48.148;16.326;2023-02-04T05:55:20;4.30;1.00
10566;DHT22;5331;48.148;16.326;2023-02-04T05:57:47;4.30;1.00
10566;DHT22;5331;48.148;16.326;2023-02-04T06:00:15;4.30;1.00
10566;DHT22;5331;48.148;16.326;2023-02-04T06:02:42;4.30;1.00
10566;DHT22;5331;48.148;16.326;2023-02-04T06:05:08;4.30;1.00
10566;DHT22;5331;48.148;16.326;2023-02-04T06:07:37;4.20;1.00
10566;DHT22;5331;48.148;16.326;2023-02-04T06:10:04;4.30;1.00
10566;DHT22;5331;48.148;16.326;2023-02-04T06:12:31;4.30;1.00
10566;DHT22;5331;48.148;16.326;2023-02-04T06:14:58;4.30;1.00
10566;DHT22;5331;48.148;16.326;2023-02-04T06:17:25;4.30;1.00
10566;DHT22;5331;48.148;16.326;2023-02-04T06:19:52;4.30;1.00
10566;DHT22;5331;48.148;16.326;2023-02-04T06:22:19;4.30;1.00
10566;DHT22;5331;48.148;16.326;2023-02-04T06:24:47;4.30;1.00
10566;DHT22;5331;48.148;16.326;2023-02-04T06:27:14;4.30;1.00
10566;DHT22;5331;48.148;16.326;2023-02-04T06:29:47;4.30;1.00
10566;DHT22;5331;48.148;16.326;2023-02-04T06:32:14;4.20;1.00
10566;DHT22;5331;48.148;16.326;2023-02-04T06:34:41;4.20;1.00
10566;DHT22;5331;48.148;16.326;2023-02-04T06:37:09;4.20;1.00
10566;DHT22;5331;48.148;16.326;2023-02-04T06:39:36;4.20;1.00
10566;DHT22;5331;48.148;16.326;2023-02-04T06:42:06;4.20;1.00
10566;DHT22;5331;48.148;16.326;2023-02-04T06:44:33;4.20;1.00
10566;DHT22;5331;48.148;16.326;2023-02-04T06:47:00;4.10;1.00
10566;DHT22;5331;48.148;16.326;2023-02-04T06:49:27;4.10;1.00
10566;DHT22;5331;48.148;16.326;2023-02-04T06:51:54;4.10;1.00
10566;DHT22;5331;48.148;16.326;2023-02-04T06:54:21;4.20;1.00
10566;DHT22;5331;48.148;16.326;2023-02-04T06:56:48;4.10;1.00
10566;DHT22;5331;48.148;16.326;2023-02-04T06:59:17;4.10;1.00
10566;DHT22;5331;48.148;16.326;2023-02-04T07:01:44;4.10;1.00
10566;DHT22;5331;48.148;16.326;2023-02-04T07:04:11;4.10;1.00
10566;DHT22;5331;48.148;16.326;2023-02-04T07:06:38;4.10;1.00
10566;DHT22;5331;48.148;16.326;2023-02-04T07:09:05;4.10;1.00
10566;DHT22;5331;48.148;16.326;2023-02-04T07:11:32;4.00;1.00
10566;DHT22;5331;48.148;16.326;2023-02-04T07:13:58;3.90;1.00
10566;DHT22;5331;48.148;16.326;2023-02-04T07:16:27;3.80;1.00
10566;DHT22;5331;48.148;16.326;2023-02-04T07:18:54;3.80;1.00
10566;DHT22;5331;48.148;16.326;2023-02-04T07:21:21;3.80;1.00
10566;DHT22;5331;48.148;16.326;2023-02-04T07:23:48;3.70;1.00
10566;DHT22;5331;48.148;16.326;2023-02-04T07:26:15;3.70;1.00
10566;DHT22;5331;48.148;16.326;2023-02-04T07:28:43;3.70;1.00
10566;DHT22;5331;48.148;16.326;2023-02-04T07:31:10;3.70;1.00
10566;DHT22;5331;48.148;16.326;2023-02-04T07:33:38;3.60;1.00
10566;DHT22;5331;48.148;16.326;2023-02-04T07:36:05;3.50;1.00
10566;DHT22;5331;48.148;16.326;2023-02-04T07:38:32;3.40;1.00
10566;DHT22;5331;48.148;16.326;2023-02-04T07:40:59;3.50;1.00
10566;DHT22;5331;48.148;16.326;2023-02-04T07:43:26;3.50;1.00
10566;DHT22;5331;48.148;16.326;2023-02-04T07:45:53;3.40;1.00
10566;DHT22;5331;48.148;16.326;2023-02-04T07:48:20;3.50;1.00
10566;DHT22;5331;48.148;16.326;2023-02-04T07:50:49;3.50;1.00
10566;DHT22;5331;48.148;16.326;2023-02-04T07:53:15;3.50;1.00
10566;DHT22;5331;48.148;16.326;2023-02-04T07:55:42;3.60;1.00
10566;DHT22;5331;48.148;16.326;2023-02-04T07:58:09;3.60;1.00
10566;DHT22;5331;48.148;16.326;2023-02-04T08:00:36;3.60;1.00
10566;DHT22;5331;48.148;16.326;2023-02-04T08:03:03;3.50;1.00
10566;DHT22;5331;48.148;16.326;2023-02-04T08:05:30;3.40;1.00
10566;DHT22;5331;48.148;16.326;2023-02-04T08:07:59;3.30;1.00
10566;DHT22;5331;48.148;16.326;2023-02-04T08:10:26;3.20;1.00
10566;DHT22;5331;48.148;16.326;2023-02-04T08:12:53;3.20;1.00
10566;DHT22;5331;48.148;16.326;2023-02-04T08:15:20;3.20;1.00
10566;DHT22;5331;48.148;16.326;2023-02-04T08:17:47;3.20;1.00
10566;DHT22;5331;48.148;16.326;2023-02-04T08:20:14;3.10;1.00
10566;DHT22;5331;48.148;16.326;2023-02-04T08:22:43;3.10;1.00
10566;DHT22;5331;48.148;16.326;2023-02-04T08:25:11;3.20;1.00
10566;DHT22;5331;48.148;16.326;2023-02-04T08:27:38;3.10;1.00
10566;DHT22;5331;48.148;16.326;2023-02-04T08:30:06;3.20;1.00
10566;DHT22;5331;48.148;16.326;2023-02-04T08:32:34;3.20;1.00
10566;DHT22;5331;48.148;16.326;2023-02-04T08:35:03;3.30;1.00
10566;DHT22;5331;48.148;16.326;2023-02-04T08:37:31;3.30;1.00
10566;DHT22;5331;48.148;16.326;2023-02-04T08:40:01;3.30;1.00
10566;DHT22;5331;48.148;16.326;2023-02-04T08:42:32;3.40;1.00
10566;DHT22;5331;48.148;16.326;2023-02-04T08:45:00;3.40;1.00
10566;DHT22;5331;48.148;16.326;2023-02-04T08:47:28;3.40;1.00
10566;DHT22;5331;48.148;16.326;2023-02-04T08:49:55;3.50;1.00
10566;DHT22;5331;48.148;16.326;2023-02-04T08:52:22;3.60;1.00
10566;DHT22;5331;48.148;16.326;2023-02-04T08:54:49;3.60;1.00
10566;DHT22;5331;48.148;16.326;2023-02-04T08:57:16;3.60;1.00
10566;DHT22;5331;48.148;16.326;2023-02-04T08:59:44;3.60;1.00
10566;DHT22;5331;48.148;16.326;2023-02-04T09:02:11;3.50;1.00
10566;DHT22;5331;48.148;16.326;2023-02-04T09:04:38;4.10;1.00
10566;DHT22;5331;48.148;16.326;2023-02-04T09:07:05;4.10;1.00
10566;DHT22;5331;48.148;16.326;2023-02-04T09:09:32;4.40;1.00
10566;DHT22;5331;48.148;16.326;2023-02-04T09:11:59;4.70;1.00
10566;DHT22;5331;48.148;16.326;2023-02-04T09:14:27;5.00;1.00
10566;DHT22;5331;48.148;16.326;2023-02-04T09:16:56;4.90;1.00
10566;DHT22;5331;48.148;16.326;2023-02-04T09:19:23;5.00;1.00
10566;DHT22;5331;48.148;16.326;2023-02-04T09:21:50;5.20;1.00
10566;DHT22;5331;48.148;16.326;2023-02-04T09:24:18;5.00;1.00
10566;DHT22;5331;48.148;16.326;2023-02-04T09:26:48;4.70;1.00
10566;DHT22;5331;48.148;16.326;2023-02-04T09:29:15;4.30;1.00
10566;DHT22;5331;48.148;16.326;2023-02-04T09:31:42;4.10;1.00
10566;DHT22;5331;48.148;16.326;2023-02-04T09:34:10;4.00;1.00
10566;DHT22;5331;48.148;16.326;2023-02-04T09:36:37;3.90;1.00
10566;DHT22;5331;48.148;16.326;2023-02-04T09:39:04;3.80;1.00
10566;DHT22;5331;48.148;16.326;2023-02-04T09:41:32;3.60;1.00
10566;DHT22;5331;48.148;16.326;2023-02-04T09:44:00;3.50;1.00
10566;DHT22;5331;48.148;16.326;2023-02-04T09:46:27;3.50;1.00
10566;DHT22;5331;48.148;16.326;2023-02-04T09:48:55;3.40;1.00
10566;DHT22;5331;48.148;16.326;2023-02-04T09:51:27;3.50;1.00
10566;DHT22;5331;48.148;16.326;2023-02-04T09:54:00;3.50;1.00
10566;DHT22;5331;48.148;16.326;2023-02-04T09:56:29;3.50;1.00
10566;DHT22;5331;48.148;16.326;2023-02-04T09:58:56;3.40;1.00
10566;DHT22;5331;48.148;16.326;2023-02-04T10:01:25;3.30;1.00
10566;DHT22;5331;48.148;16.326;2023-02-04T10:03:54;3.40;1.00
10566;DHT22;5331;48.148;16.326;2023-02-04T10:06:26;3.50;1.00
10566;DHT22;5331;48.148;16.326;2023-02-04T10:08:53;3.40;1.00
10566;DHT22;5331;48.148;16.326;2023-02-04T10:11:22;3.40;1.00
10566;DHT22;5331;48.148;16.326;2023-02-04T10:13:52;3.40;1.00
10566;DHT22;5331;48.148;16.326;2023-02-04T10:16:21;3.40;1.00
10566;DHT22;5331;48.148;16.326;2023-02-04T10:18:54;3.40;1.00
10566;DHT22;5331;48.148;16.326;2023-02-04T10:21:25;3.40;1.00
10566;DHT22;5331;48.148;16.326;2023-02-04T10:23:56;3.40;1.00
10566;DHT22;5331;48.148;16.326;2023-02-04T10:26:26;3.40;1.00
10566;DHT22;5331;48.148;16.326;2023-02-04T10:28:58;3.30;1.00
10566;DHT22;5331;48.148;16.326;2023-02-04T10:31:30;3.30;1.00
10566;DHT22;5331;48.148;16.326;2023-02-04T10:34:11;3.40;1.00
10566;DHT22;5331;48.148;16.326;2023-02-04T10:36:40;3.50;1.00
10566;DHT22;5331;48.148;16.326;2023-02-04T10:39:13;3.50;1.00
10566;DHT22;5331;48.148;16.326;2023-02-04T10:41:44;3.50;1.00
10566;DHT22;5331;48.148;16.326;2023-02-04T10:44:16;3.70;1.00
10566;DHT22;5331;48.148;16.326;2023-02-04T10:46:43;3.90;1.00
10566;DHT22;5331;48.148;16.326;2023-02-04T10:49:17;3.90;1.00
10566;DHT22;5331;48.148;16.326;2023-02-04T10:51:45;4.10;1.00
10566;DHT22;5331;48.148;16.326;2023-02-04T10:54:15;4.20;1.00
10566;DHT22;5331;48.148;16.326;2023-02-04T10:57:04;4.30;1.00
10566;DHT22;5331;48.148;16.326;2023-02-04T10:59:33;4.40;1.00
10566;DHT22;5331;48.148;16.326;2023-02-04T11:02:25;4.90;1.00
10566;DHT22;5331;48.148;16.326;2023-02-04T11:04:49;4.70;1.00
10566;DHT22;5331;48.148;16.326;2023-02-04T11:07:16;4.50;1.00
10566;DHT22;5331;48.148;16.326;2023-02-04T11:09:44;4.20;1.00
10566;DHT22;5331;48.148;16.326;2023-02-04T11:12:19;4.00;1.00
10566;DHT22;5331;48.148;16.326;2023-02-04T11:14:54;3.70;1.00
10566;DHT22;5331;48.148;16.326;2023-02-04T11:17:27;3.40;1.00
10566;DHT22;5331;48.148;16.326;2023-02-04T11:19:54;3.10;1.00
10566;DHT22;5331;48.148;16.326;2023-02-04T11:22:23;3.20;1.00
10566;DHT22;5331;48.148;16.326;2023-02-04T11:24:52;3.30;1.00
10566;DHT22;5331;48.148;16.326;2023-02-04T11:27:22;3.60;1.00
10566;DHT22;5331;48.148;16.326;2023-02-04T11:29:49;3.90;1.00
10566;DHT22;5331;48.148;16.326;2023-02-04T11:32:29;4.20;1.00
10566;DHT22;5331;48.148;16.326;2023-02-04T11:35:22;4.40;1.00
10566;DHT22;5331;48.148;16.326;2023-02-04T11:37:50;4.60;1.00
10566;DHT22;5331;48.148;16.326;2023-02-04T11:40:24;4.90;1.00
10566;DHT22;5331;48.148;16.326;2023-02-04T11:43:00;5.10;1.00
10566;DHT22;5331;48.148;16.326;2023-02-04T11:45:30;5.20;1.00
10566;DHT22;5331;48.148;16.326;2023-02-04T11:47:59;5.00;1.00
10566;DHT22;5331;48.148;16.326;2023-02-04T11:50:29;4.70;1.00
10566;DHT22;5331;48.148;16.326;2023-02-04T11:52:58;4.60;1.00
10566;DHT22;5331;48.148;16.326;2023-02-04T11:55:28;4.50;1.00
10566;DHT22;5331;48.148;16.326;2023-02-04T11:57:56;4.20;1.00
10566;DHT22;5331;48.148;16.326;2023-02-04T12:00:24;4.20;1.00
10566;DHT22;5331;48.148;16.326;2023-02-04T12:02:56;4.10;1.00
10566;DHT22;5331;48.148;16.326;2023-02-04T12:05:35;4.00;1.00
10566;DHT22;5331;48.148;16.326;2023-02-04T12:08:12;4.30;1.00
10566;DHT22;5331;48.148;16.326;2023-02-04T12:11:03;4.60;1.00
10566;DHT22;5331;48.148;16.326;2023-02-04T12:13:31;4.80;1.00
10566;DHT22;5331;48.148;16.326;2023-02-04T12:15:59;4.80;1.00
10566;DHT22;5331;48.148;16.326;2023-02-04T12:18:27;4.70;1.00
10566;DHT22;5331;48.148;16.326;2023-02-04T12:20:55;4.50;1.00
10566;DHT22;5331;48.148;16.326;2023-02-04T12:23:22;4.40;1.00
10566;DHT22;5331;48.148;16.326;2023-02-04T12:25:50;4.20;1.00
10566;DHT22;5331;48.148;16.326;2023-02-04T12:28:18;4.00;1.00
10566;DHT22;5331;48.148;16.326;2023-02-04T12:30:45;4.00;1.00
10566;DHT22;5331;48.148;16.326;2023-02-04T12:33:12;4.00;1.00
10566;DHT22;5331;48.148;16.326;2023-02-04T12:35:39;4.00;1.00
10566;DHT22;5331;48.148;16.326;2023-02-04T12:38:06;4.10;1.00
10566;DHT22;5331;48.148;16.326;2023-02-04T12:40:33;4.10;1.00
10566;DHT22;5331;48.148;16.326;2023-02-04T12:43:00;4.20;1.00
10566;DHT22;5331;48.148;16.326;2023-02-04T12:45:29;4.20;1.00
10566;DHT22;5331;48.148;16.326;2023-02-04T12:47:56;4.20;1.00
10566;DHT22;5331;48.148;16.326;2023-02-04T12:50:23;4.10;1.00
10566;DHT22;5331;48.148;16.326;2023-02-04T12:52:52;4.00;1.00
10566;DHT22;5331;48.148;16.326;2023-02-04T12:55:19;3.90;1.00
10566;DHT22;5331;48.148;16.326;2023-02-04T12:57:47;3.70;1.00
10566;DHT22;5331;48.148;16.326;2023-02-04T13:00:16;3.60;1.00
10566;DHT22;5331;48.148;16.326;2023-02-04T13:02:45;3.60;1.00
10566;DHT22;5331;48.148;16.326;2023-02-04T13:05:13;3.70;1.00
10566;DHT22;5331;48.148;16.326;2023-02-04T13:07:40;3.80;1.00
10566;DHT22;5331;48.148;16.326;2023-02-04T13:10:07;3.90;1.00
10566;DHT22;5331;48.148;16.326;2023-02-04T13:12:35;4.00;1.00
10566;DHT22;5331;48.148;16.326;2023-02-04T13:15:02;3.90;1.00
10566;DHT22;5331;48.148;16.326;2023-02-04T13:17:30;4.00;1.00
10566;DHT22;5331;48.148;16.326;2023-02-04T13:19:58;4.00;1.00
10566;DHT22;5331;48.148;16.326;2023-02-04T13:22:25;3.90;1.00
10566;DHT22;5331;48.148;16.326;2023-02-04T13:24:52;3.80;1.00
10566;DHT22;5331;48.148;16.326;2023-02-04T13:27:19;3.80;1.00
10566;DHT22;5331;48.148;16.326;2023-02-04T13:29:46;3.70;1.00
10566;DHT22;5331;48.148;16.326;2023-02-04T13:32:13;3.60;1.00
10566;DHT22;5331;48.148;16.326;2023-02-04T13:34:40;3.60;1.00
10566;DHT22;5331;48.148;16.326;2023-02-04T13:37:09;3.50;1.00
10566;DHT22;5331;48.148;16.326;2023-02-04T13:39:36;3.40;1.00
10566;DHT22;5331;48.148;16.326;2023-02-04T13:42:03;3.50;1.00
10566;DHT22;5331;48.148;16.326;2023-02-04T13:44:30;3.40;1.00
10566;DHT22;5331;48.148;16.326;2023-02-04T13:46:57;3.40;1.00
10566;DHT22;5331;48.148;16.326;2023-02-04T13:49:24;3.50;1.00
10566;DHT22;5331;48.148;16.326;2023-02-04T13:51:51;3.50;1.00
10566;DHT22;5331;48.148;16.326;2023-02-04T13:54:19;3.50;1.00
10566;DHT22;5331;48.148;16.326;2023-02-04T13:56:47;3.50;1.00
10566;DHT22;5331;48.148;16.326;2023-02-04T13:59:14;3.50;1.00
10566;DHT22;5331;48.148;16.326;2023-02-04T14:01:41;3.50;1.00
10566;DHT22;5331;48.148;16.326;2023-02-04T14:04:08;3.50;1.00
10566;DHT22;5331;48.148;16.326;2023-02-04T14:06:35;3.40;1.00
10566;DHT22;5331;48.148;16.326;2023-02-04T14:09:08;3.30;1.00
10566;DHT22;5331;48.148;16.326;2023-02-04T14:11:38;3.20;1.00
10566;DHT22;5331;48.148;16.326;2023-02-04T14:14:05;3.10;1.00
10566;DHT22;5331;48.148;16.326;2023-02-04T14:16:32;3.10;1.00
10566;DHT22;5331;48.148;16.326;2023-02-04T14:18:59;3.10;1.00
10566;DHT22;5331;48.148;16.326;2023-02-04T14:21:26;3.10;1.00
10566;DHT22;5331;48.148;16.326;2023-02-04T14:23:55;3.10;1.00
10566;DHT22;5331;48.148;16.326;2023-02-04T14:26:22;3.10;1.00
10566;DHT22;5331;48.148;16.326;2023-02-04T14:28:50;3.00;1.00
10566;DHT22;5331;48.148;16.326;2023-02-04T14:31:18;3.00;1.00
10566;DHT22;5331;48.148;16.326;2023-02-04T14:33:45;3.00;1.00
10566;DHT22;5331;48.148;16.326;2023-02-04T14:36:12;3.00;1.00
10566;DHT22;5331;48.148;16.326;2023-02-04T14:38:39;3.00;1.00
10566;DHT22;5331;48.148;16.326;2023-02-04T14:41:06;3.00;1.00
10566;DHT22;5331;48.148;16.326;2023-02-04T14:43:34;3.00;1.00
10566;DHT22;5331;48.148;16.326;2023-02-04T14:46:04;3.00;1.00
10566;DHT22;5331;48.148;16.326;2023-02-04T14:48:31;3.00;1.00
10566;DHT22;5331;48.148;16.326;2023-02-04T14:50:58;3.00;1.00
10566;DHT22;5331;48.148;16.326;2023-02-04T14:53:26;3.00;1.00
10566;DHT22;5331;48.148;16.326;2023-02-04T14:55:53;2.90;1.00
10566;DHT22;5331;48.148;16.326;2023-02-04T14:58:20;2.90;1.00
10566;DHT22;5331;48.148;16.326;2023-02-04T15:00:47;2.90;1.00
10566;DHT22;5331;48.148;16.326;2023-02-04T15:03:16;2.90;1.00
10566;DHT22;5331;48.148;16.326;2023-02-04T15:05:43;2.90;1.00
10566;DHT22;5331;48.148;16.326;2023-02-04T15:08:10;2.90;1.00
10566;DHT22;5331;48.148;16.326;2023-02-04T15:10:37;2.90;1.00
10566;DHT22;5331;48.148;16.326;2023-02-04T15:13:04;2.80;1.00
10566;DHT22;5331;48.148;16.326;2023-02-04T15:15:31;2.80;1.00
10566;DHT22;5331;48.148;16.326;2023-02-04T15:17:58;2.80;1.00
10566;DHT22;5331;48.148;16.326;2023-02-04T15:20:26;2.90;1.00
10566;DHT22;5331;48.148;16.326;2023-02-04T15:22:53;2.80;1.00
10566;DHT22;5331;48.148;16.326;2023-02-04T15:25:21;2.80;1.00
10566;DHT22;5331;48.148;16.326;2023-02-04T15:27:49;2.70;1.00
10566;DHT22;5331;48.148;16.326;2023-02-04T15:30:16;2.70;1.00
10566;DHT22;5331;48.148;16.326;2023-02-04T15:32:43;2.70;1.00
10566;DHT22;5331;48.148;16.326;2023-02-04T15:35:11;2.70;1.00
10566;DHT22;5331;48.148;16.326;2023-02-04T15:37:39;2.70;1.00
10566;DHT22;5331;48.148;16.326;2023-02-04T15:40:08;2.60;1.00
10566;DHT22;5331;48.148;16.326;2023-02-04T15:42:35;2.50;1.00
10566;DHT22;5331;48.148;16.326;2023-02-04T15:45:03;2.40;1.00
10566;DHT22;5331;48.148;16.326;2023-02-04T15:47:31;2.40;1.00
10566;DHT22;5331;48.148;16.326;2023-02-04T15:49:58;2.40;1.00
10566;DHT22;5331;48.148;16.326;2023-02-04T15:52:25;2.40;1.00
10566;DHT22;5331;48.148;16.326;2023-02-04T15:54:53;2.40;1.00
10566;DHT22;5331;48.148;16.326;2023-02-04T15:57:20;2.30;1.00
10566;DHT22;5331;48.148;16.326;2023-02-04T15:59:47;2.40;1.00
10566;DHT22;5331;48.148;16.326;2023-02-04T16:02:14;2.40;1.00
10566;DHT22;5331;48.148;16.326;2023-02-04T16:07:10;2.30;1.00
10566;DHT22;5331;48.148;16.326;2023-02-04T16:09:37;2.30;1.00